Airfield :
LOGIN :

Register | Disclaimer

   EN    FR    IT 

 










Legend :    VFR   Marginal VFR   IFR   Intensive IFR   Very Intensive IFR
Visi :
Ceiling :
>= 8 km
>= 3000ft
5 to 8 km
1000 to 3000 ft
1500m to 5 km
500 to 1000 ft
800 to 1500m
200 to 500 ft
< 800m
< 200 ft
Symbols :   Thunderstorms  Fog  Heavy snow  Heavy precipitations  Wind > 20 kt
SIGMETs :     Misc.  Thunderstorms  Icing  Turbulence  Mountain Waves  Volcanic Ashes






- Airport Elevation : 31 ft
- IATA code : INV


EGPE - Inverness

CURRENT METAR :
  • 111950Z 21003KT 9999 FEW008 BKN015 04/03 Q0990

EXPIRED METARs :
  • 111920Z 21003KT 9999 -DZ FEW007 BKN015 04/03 Q0990
  • 111850Z 21003KT 7000 -DZ FEW007 BKN012 04/03 Q0990
  • 111820Z 21004KT 7000 -DZ BKN013 04/03 Q0990
  • 111750Z 21004KT 9999 BKN013 04/03 Q0990
  • 111720Z 21005KT 9999 -RA FEW008 BKN014 04/03 Q0989

TAF TAF EGPE
Valid from the 11 at 18:00 until the 12 at 03:00 UTC


111658Z 1118/1203 22007KT 9999 SCT020
TEMPO 1118/1203 6000 RA BKN012
PROB30
TEMPO 1200/1203 3000 +SHRA BKN008
ATIS : +44 1667 464 255



MET'MAP, your aeronautical weather chart ! - Copyright ORBIFLY December 2007 - Disclaimer

ORBIFLY MET'MAP TEAM :

Programming & Development : Alexandra Zaïnal
Concept & Development : Baudouin d'Aumeries
Co-Development & Prog : Marc-Olivier Méhu
Technical & hardware support : Manuel Goepfert

Contact : metmap@orbifly.com




SOURCES & CREDITS :

   NOAA